sensor_id;sensor_type;location;lat;lon;timestamp;P1;durP1;ratioP1;P2;durP2;ratioP2
11646;SDS011;5880;52.342;9.662;2023-03-01T00:00:40;7.53;;;4.57;;
11646;SDS011;5880;52.342;9.662;2023-03-01T00:03:06;5.67;;;4.43;;
11646;SDS011;5880;52.342;9.662;2023-03-01T00:05:32;6.47;;;4.60;;
11646;SDS011;5880;52.342;9.662;2023-03-01T00:07:58;7.07;;;4.50;;
11646;SDS011;5880;52.342;9.662;2023-03-01T00:10:23;6.67;;;4.23;;
11646;SDS011;5880;52.342;9.662;2023-03-01T00:12:51;7.37;;;4.87;;
11646;SDS011;5880;52.342;9.662;2023-03-01T00:15:17;7.00;;;4.77;;
11646;SDS011;5880;52.342;9.662;2023-03-01T00:17:42;7.30;;;4.87;;
11646;SDS011;5880;52.342;9.662;2023-03-01T00:20:08;6.10;;;4.90;;
11646;SDS011;5880;52.342;9.662;2023-03-01T00:22:35;7.10;;;4.93;;
11646;SDS011;5880;52.342;9.662;2023-03-01T00:25:01;6.57;;;4.60;;
11646;SDS011;5880;52.342;9.662;2023-03-01T00:27:28;5.43;;;4.07;;
11646;SDS011;5880;52.342;9.662;2023-03-01T00:29:54;7.50;;;5.00;;
11646;SDS011;5880;52.342;9.662;2023-03-01T00:32:19;6.97;;;4.80;;
11646;SDS011;5880;52.342;9.662;2023-03-01T00:34:45;5.97;;;4.80;;
11646;SDS011;5880;52.342;9.662;2023-03-01T00:37:18;7.57;;;4.40;;
11646;SDS011;5880;52.342;9.662;2023-03-01T00:39:48;7.50;;;4.80;;
11646;SDS011;5880;52.342;9.662;2023-03-01T00:42:14;6.40;;;4.20;;
11646;SDS011;5880;52.342;9.662;2023-03-01T00:44:41;5.83;;;4.20;;
11646;SDS011;5880;52.342;9.662;2023-03-01T00:47:07;6.10;;;4.70;;
11646;SDS011;5880;52.342;9.662;2023-03-01T00:49:33;4.97;;;4.30;;
11646;SDS011;5880;52.342;9.662;2023-03-01T00:51:59;6.03;;;4.43;;
11646;SDS011;5880;52.342;9.662;2023-03-01T00:54:25;5.47;;;4.30;;
11646;SDS011;5880;52.342;9.662;2023-03-01T00:56:50;5.80;;;4.60;;
11646;SDS011;5880;52.342;9.662;2023-03-01T00:59:16;6.40;;;4.30;;
11646;SDS011;5880;52.342;9.662;2023-03-01T01:01:41;4.97;;;4.10;;
11646;SDS011;5880;52.342;9.662;2023-03-01T01:04:08;5.50;;;4.27;;
11646;SDS011;5880;52.342;9.662;2023-03-01T01:06:41;5.87;;;4.20;;
11646;SDS011;5880;52.342;9.662;2023-03-01T01:09:11;7.60;;;4.23;;
11646;SDS011;5880;52.342;9.662;2023-03-01T01:11:48;4.80;;;3.73;;
11646;SDS011;5880;52.342;9.662;2023-03-01T01:14:16;6.33;;;4.17;;
11646;SDS011;5880;52.342;9.662;2023-03-01T01:16:43;5.73;;;4.20;;
11646;SDS011;5880;52.342;9.662;2023-03-01T01:19:10;5.73;;;3.80;;
11646;SDS011;5880;52.342;9.662;2023-03-01T01:21:37;5.87;;;4.20;;
11646;SDS011;5880;52.342;9.662;2023-03-01T01:24:03;6.00;;;3.87;;
11646;SDS011;5880;52.342;9.662;2023-03-01T01:26:30;5.50;;;4.20;;
11646;SDS011;5880;52.342;9.662;2023-03-01T01:28:58;7.23;;;4.20;;
11646;SDS011;5880;52.342;9.662;2023-03-01T01:31:25;6.00;;;4.63;;
11646;SDS011;5880;52.342;9.662;2023-03-01T01:33:53;6.50;;;4.20;;
11646;SDS011;5880;52.342;9.662;2023-03-01T01:36:20;6.23;;;3.93;;
11646;SDS011;5880;52.342;9.662;2023-03-01T01:38:46;5.73;;;4.30;;
11646;SDS011;5880;52.342;9.662;2023-03-01T01:41:12;6.33;;;4.10;;
11646;SDS011;5880;52.342;9.662;2023-03-01T01:43:43;7.87;;;4.33;;
11646;SDS011;5880;52.342;9.662;2023-03-01T01:46:31;5.77;;;4.07;;
11646;SDS011;5880;52.342;9.662;2023-03-01T01:49:00;4.20;;;3.80;;
11646;SDS011;5880;52.342;9.662;2023-03-01T01:51:31;5.53;;;4.17;;
11646;SDS011;5880;52.342;9.662;2023-03-01T01:54:27;4.27;;;3.77;;
11646;SDS011;5880;52.342;9.662;2023-03-01T01:57:06;5.33;;;3.90;;
11646;SDS011;5880;52.342;9.662;2023-03-01T01:59:39;5.50;;;4.00;;
11646;SDS011;5880;52.342;9.662;2023-03-01T02:02:11;5.60;;;4.47;;
11646;SDS011;5880;52.342;9.662;2023-03-01T02:04:38;5.43;;;4.00;;
11646;SDS011;5880;52.342;9.662;2023-03-01T02:07:07;6.50;;;4.20;;
11646;SDS011;5880;52.342;9.662;2023-03-01T02:09:45;6.23;;;4.10;;
11646;SDS011;5880;52.342;9.662;2023-03-01T02:12:14;4.87;;;4.10;;
11646;SDS011;5880;52.342;9.662;2023-03-01T02:14:46;5.93;;;4.57;;
11646;SDS011;5880;52.342;9.662;2023-03-01T02:17:12;4.83;;;3.90;;
11646;SDS011;5880;52.342;9.662;2023-03-01T02:19:49;4.73;;;4.20;;
11646;SDS011;5880;52.342;9.662;2023-03-01T02:22:36;6.27;;;4.00;;
11646;SDS011;5880;52.342;9.662;2023-03-01T02:25:07;5.97;;;4.40;;
11646;SDS011;5880;52.342;9.662;2023-03-01T02:30:41;4.73;;;3.67;;
11646;SDS011;5880;52.342;9.662;2023-03-01T02:33:28;4.50;;;3.97;;
11646;SDS011;5880;52.342;9.662;2023-03-01T02:35:57;4.77;;;4.03;;
11646;SDS011;5880;52.342;9.662;2023-03-01T02:38:26;4.90;;;4.00;;
11646;SDS011;5880;52.342;9.662;2023-03-01T02:40:52;5.27;;;4.20;;
11646;SDS011;5880;52.342;9.662;2023-03-01T02:43:22;7.03;;;4.20;;
11646;SDS011;5880;52.342;9.662;2023-03-01T02:45:57;5.40;;;4.03;;
11646;SDS011;5880;52.342;9.662;2023-03-01T02:48:52;4.33;;;3.53;;
11646;SDS011;5880;52.342;9.662;2023-03-01T02:54:08;5.30;;;4.00;;
11646;SDS011;5880;52.342;9.662;2023-03-01T02:57:19;4.57;;;3.67;;
11646;SDS011;5880;52.342;9.662;2023-03-01T02:59:46;4.93;;;3.90;;
11646;SDS011;5880;52.342;9.662;2023-03-01T03:02:19;5.83;;;4.70;;
11646;SDS011;5880;52.342;9.662;2023-03-01T03:05:02;4.93;;;3.73;;
11646;SDS011;5880;52.342;9.662;2023-03-01T03:07:39;5.43;;;4.00;;
11646;SDS011;5880;52.342;9.662;2023-03-01T03:10:09;6.70;;;4.23;;
11646;SDS011;5880;52.342;9.662;2023-03-01T03:12:44;5.80;;;4.23;;
11646;SDS011;5880;52.342;9.662;2023-03-01T03:15:19;7.37;;;4.87;;
11646;SDS011;5880;52.342;9.662;2023-03-01T03:17:46;4.87;;;3.83;;
11646;SDS011;5880;52.342;9.662;2023-03-01T03:20:14;4.87;;;4.17;;
11646;SDS011;5880;52.342;9.662;2023-03-01T03:22:47;8.17;;;4.70;;
11646;SDS011;5880;52.342;9.662;2023-03-01T03:25:19;5.63;;;4.63;;
11646;SDS011;5880;52.342;9.662;2023-03-01T03:27:46;7.17;;;4.60;;
11646;SDS011;5880;52.342;9.662;2023-03-01T03:30:16;5.83;;;4.30;;
11646;SDS011;5880;52.342;9.662;2023-03-01T03:32:45;7.80;;;4.80;;
11646;SDS011;5880;52.342;9.662;2023-03-01T03:35:40;6.53;;;4.20;;
11646;SDS011;5880;52.342;9.662;2023-03-01T03:38:14;5.37;;;4.40;;
11646;SDS011;5880;52.342;9.662;2023-03-01T03:40:44;7.03;;;4.20;;
11646;SDS011;5880;52.342;9.662;2023-03-01T03:43:17;5.30;;;4.23;;
11646;SDS011;5880;52.342;9.662;2023-03-01T03:45:48;5.57;;;4.27;;
11646;SDS011;5880;52.342;9.662;2023-03-01T03:48:16;4.97;;;4.23;;
11646;SDS011;5880;52.342;9.662;2023-03-01T03:50:46;5.07;;;3.80;;
11646;SDS011;5880;52.342;9.662;2023-03-01T03:53:15;5.10;;;3.90;;
11646;SDS011;5880;52.342;9.662;2023-03-01T03:55:41;7.20;;;4.30;;
11646;SDS011;5880;52.342;9.662;2023-03-01T03:58:07;5.57;;;4.20;;
11646;SDS011;5880;52.342;9.662;2023-03-01T04:00:36;5.33;;;4.07;;
11646;SDS011;5880;52.342;9.662;2023-03-01T04:03:07;6.23;;;4.03;;
11646;SDS011;5880;52.342;9.662;2023-03-01T04:05:33;5.10;;;4.10;;
11646;SDS011;5880;52.342;9.662;2023-03-01T04:08:00;6.87;;;4.57;;
11646;SDS011;5880;52.342;9.662;2023-03-01T04:10:28;5.53;;;4.23;;
11646;SDS011;5880;52.342;9.662;2023-03-01T04:12:57;7.10;;;4.53;;
11646;SDS011;5880;52.342;9.662;2023-03-01T04:15:23;5.73;;;4.70;;
11646;SDS011;5880;52.342;9.662;2023-03-01T04:17:52;4.73;;;4.27;;
11646;SDS011;5880;52.342;9.662;2023-03-01T04:20:21;5.67;;;4.03;;
11646;SDS011;5880;52.342;9.662;2023-03-01T04:22:51;6.33;;;4.00;;
11646;SDS011;5880;52.342;9.662;2023-03-01T04:25:42;6.30;;;4.30;;
11646;SDS011;5880;52.342;9.662;2023-03-01T04:28:20;5.43;;;4.00;;
11646;SDS011;5880;52.342;9.662;2023-03-01T04:31:02;5.27;;;4.07;;
11646;SDS011;5880;52.342;9.662;2023-03-01T04:33:38;6.40;;;4.17;;
11646;SDS011;5880;52.342;9.662;2023-03-01T04:36:10;6.40;;;4.60;;
11646;SDS011;5880;52.342;9.662;2023-03-01T04:38:37;6.07;;;4.70;;
11646;SDS011;5880;52.342;9.662;2023-03-01T04:41:05;6.83;;;4.60;;
11646;SDS011;5880;52.342;9.662;2023-03-01T04:43:34;5.13;;;3.87;;
11646;SDS011;5880;52.342;9.662;2023-03-01T04:46:04;7.57;;;4.70;;
11646;SDS011;5880;52.342;9.662;2023-03-01T04:48:37;4.57;;;3.80;;
11646;SDS011;5880;52.342;9.662;2023-03-01T04:51:05;6.27;;;4.00;;
11646;SDS011;5880;52.342;9.662;2023-03-01T04:53:33;5.97;;;4.60;;
11646;SDS011;5880;52.342;9.662;2023-03-01T04:56:01;5.90;;;4.60;;
11646;SDS011;5880;52.342;9.662;2023-03-01T04:58:27;5.20;;;4.37;;
11646;SDS011;5880;52.342;9.662;2023-03-01T05:00:54;7.67;;;5.13;;
11646;SDS011;5880;52.342;9.662;2023-03-01T05:03:21;5.43;;;4.43;;
11646;SDS011;5880;52.342;9.662;2023-03-01T05:05:48;6.60;;;4.67;;
11646;SDS011;5880;52.342;9.662;2023-03-01T05:08:17;6.40;;;4.43;;
11646;SDS011;5880;52.342;9.662;2023-03-01T05:10:50;6.67;;;4.97;;
11646;SDS011;5880;52.342;9.662;2023-03-01T05:13:18;6.60;;;4.77;;
11646;SDS011;5880;52.342;9.662;2023-03-01T05:15:53;8.20;;;4.90;;
11646;SDS011;5880;52.342;9.662;2023-03-01T05:18:26;6.23;;;4.90;;
11646;SDS011;5880;52.342;9.662;2023-03-01T05:21:00;5.90;;;4.60;;
11646;SDS011;5880;52.342;9.662;2023-03-01T05:23:40;8.13;;;5.70;;
11646;SDS011;5880;52.342;9.662;2023-03-01T05:26:06;6.63;;;5.50;;
11646;SDS011;5880;52.342;9.662;2023-03-01T05:28:33;7.17;;;5.03;;
11646;SDS011;5880;52.342;9.662;2023-03-01T05:31:00;8.47;;;5.60;;
11646;SDS011;5880;52.342;9.662;2023-03-01T05:33:26;7.80;;;5.40;;
11646;SDS011;5880;52.342;9.662;2023-03-01T05:35:52;7.63;;;5.73;;
11646;SDS011;5880;52.342;9.662;2023-03-01T05:38:19;7.07;;;5.50;;
11646;SDS011;5880;52.342;9.662;2023-03-01T05:40:46;7.57;;;5.33;;
11646;SDS011;5880;52.342;9.662;2023-03-01T05:43:14;7.67;;;5.20;;
11646;SDS011;5880;52.342;9.662;2023-03-01T05:45:41;7.50;;;5.33;;
11646;SDS011;5880;52.342;9.662;2023-03-01T05:48:08;5.37;;;4.80;;
11646;SDS011;5880;52.342;9.662;2023-03-01T05:50:37;6.73;;;5.33;;
11646;SDS011;5880;52.342;9.662;2023-03-01T05:53:12;6.20;;;4.97;;
11646;SDS011;5880;52.342;9.662;2023-03-01T05:55:46;8.73;;;5.23;;
11646;SDS011;5880;52.342;9.662;2023-03-01T05:58:14;6.63;;;5.13;;
11646;SDS011;5880;52.342;9.662;2023-03-01T06:00:43;7.63;;;5.07;;
11646;SDS011;5880;52.342;9.662;2023-03-01T06:03:11;10.03;;;5.50;;
11646;SDS011;5880;52.342;9.662;2023-03-01T06:05:39;8.80;;;5.40;;
11646;SDS011;5880;52.342;9.662;2023-03-01T06:08:06;6.60;;;4.67;;
11646;SDS011;5880;52.342;9.662;2023-03-01T06:10:34;6.50;;;4.90;;
11646;SDS011;5880;52.342;9.662;2023-03-01T06:13:00;6.57;;;5.10;;
11646;SDS011;5880;52.342;9.662;2023-03-01T06:15:26;7.83;;;5.13;;
11646;SDS011;5880;52.342;9.662;2023-03-01T06:17:53;7.63;;;5.77;;
11646;SDS011;5880;52.342;9.662;2023-03-01T06:20:22;8.23;;;5.07;;
11646;SDS011;5880;52.342;9.662;2023-03-01T06:22:50;6.43;;;4.60;;
11646;SDS011;5880;52.342;9.662;2023-03-01T06:25:17;9.40;;;5.30;;
11646;SDS011;5880;52.342;9.662;2023-03-01T06:27:49;7.37;;;4.97;;
11646;SDS011;5880;52.342;9.662;2023-03-01T06:30:17;7.53;;;5.43;;
11646;SDS011;5880;52.342;9.662;2023-03-01T06:32:45;7.23;;;4.70;;
11646;SDS011;5880;52.342;9.662;2023-03-01T06:35:11;8.37;;;5.30;;
11646;SDS011;5880;52.342;9.662;2023-03-01T06:37:39;7.80;;;4.97;;
11646;SDS011;5880;52.342;9.662;2023-03-01T06:40:06;7.17;;;4.93;;
11646;SDS011;5880;52.342;9.662;2023-03-01T06:42:37;7.90;;;4.90;;
11646;SDS011;5880;52.342;9.662;2023-03-01T06:45:05;7.07;;;5.20;;
11646;SDS011;5880;52.342;9.662;2023-03-01T06:47:33;6.33;;;5.10;;
11646;SDS011;5880;52.342;9.662;2023-03-01T06:49:59;8.10;;;5.17;;
11646;SDS011;5880;52.342;9.662;2023-03-01T06:52:26;8.00;;;5.50;;
11646;SDS011;5880;52.342;9.662;2023-03-01T06:54:52;7.80;;;5.23;;
11646;SDS011;5880;52.342;9.662;2023-03-01T06:57:18;6.10;;;4.80;;
11646;SDS011;5880;52.342;9.662;2023-03-01T06:59:43;6.90;;;4.83;;
11646;SDS011;5880;52.342;9.662;2023-03-01T07:02:10;9.47;;;5.50;;
11646;SDS011;5880;52.342;9.662;2023-03-01T07:04:37;7.20;;;5.00;;
11646;SDS011;5880;52.342;9.662;2023-03-01T07:07:03;6.20;;;4.87;;
11646;SDS011;5880;52.342;9.662;2023-03-01T07:09:29;7.77;;;5.60;;
11646;SDS011;5880;52.342;9.662;2023-03-01T07:11:55;7.87;;;5.57;;
11646;SDS011;5880;52.342;9.662;2023-03-01T07:14:21;8.43;;;6.07;;
11646;SDS011;5880;52.342;9.662;2023-03-01T07:16:49;8.63;;;6.13;;
11646;SDS011;5880;52.342;9.662;2023-03-01T07:19:15;8.20;;;5.73;;
11646;SDS011;5880;52.342;9.662;2023-03-01T07:21:40;8.77;;;6.67;;
11646;SDS011;5880;52.342;9.662;2023-03-01T07:24:06;7.63;;;6.10;;
11646;SDS011;5880;52.342;9.662;2023-03-01T07:26:33;8.63;;;6.30;;
11646;SDS011;5880;52.342;9.662;2023-03-01T07:28:59;8.97;;;6.47;;
11646;SDS011;5880;52.342;9.662;2023-03-01T07:31:26;8.67;;;6.13;;
11646;SDS011;5880;52.342;9.662;2023-03-01T07:33:54;10.17;;;7.23;;
11646;SDS011;5880;52.342;9.662;2023-03-01T07:36:20;11.87;;;6.93;;
11646;SDS011;5880;52.342;9.662;2023-03-01T07:38:47;10.50;;;7.30;;
11646;SDS011;5880;52.342;9.662;2023-03-01T07:41:13;10.93;;;7.03;;
11646;SDS011;5880;52.342;9.662;2023-03-01T07:43:39;9.97;;;7.23;;
11646;SDS011;5880;52.342;9.662;2023-03-01T07:46:05;10.53;;;6.90;;
11646;SDS011;5880;52.342;9.662;2023-03-01T07:48:31;8.03;;;6.60;;
11646;SDS011;5880;52.342;9.662;2023-03-01T07:50:58;9.47;;;7.17;;
11646;SDS011;5880;52.342;9.662;2023-03-01T07:53:25;8.83;;;7.27;;
11646;SDS011;5880;52.342;9.662;2023-03-01T07:56:02;9.10;;;7.50;;
11646;SDS011;5880;52.342;9.662;2023-03-01T07:58:36;10.10;;;7.60;;
11646;SDS011;5880;52.342;9.662;2023-03-01T08:01:05;8.83;;;7.37;;
11646;SDS011;5880;52.342;9.662;2023-03-01T08:03:33;8.97;;;7.37;;
11646;SDS011;5880;52.342;9.662;2023-03-01T08:06:00;9.47;;;7.97;;
11646;SDS011;5880;52.342;9.662;2023-03-01T08:08:31;10.77;;;8.67;;
11646;SDS011;5880;52.342;9.662;2023-03-01T08:10:58;9.77;;;8.13;;
11646;SDS011;5880;52.342;9.662;2023-03-01T08:13:26;11.20;;;8.10;;
11646;SDS011;5880;52.342;9.662;2023-03-01T08:15:52;12.10;;;8.50;;
11646;SDS011;5880;52.342;9.662;2023-03-01T08:18:18;11.13;;;8.43;;
11646;SDS011;5880;52.342;9.662;2023-03-01T08:20:45;12.50;;;8.30;;
11646;SDS011;5880;52.342;9.662;2023-03-01T08:23:11;15.47;;;8.57;;
11646;SDS011;5880;52.342;9.662;2023-03-01T08:25:37;12.37;;;8.57;;
11646;SDS011;5880;52.342;9.662;2023-03-01T08:28:04;12.13;;;9.30;;
11646;SDS011;5880;52.342;9.662;2023-03-01T08:30:30;11.03;;;8.80;;
11646;SDS011;5880;52.342;9.662;2023-03-01T08:32:56;13.53;;;9.57;;
11646;SDS011;5880;52.342;9.662;2023-03-01T08:35:22;15.60;;;10.13;;
11646;SDS011;5880;52.342;9.662;2023-03-01T08:37:48;15.67;;;11.00;;
11646;SDS011;5880;52.342;9.662;2023-03-01T08:40:14;17.90;;;10.50;;
11646;SDS011;5880;52.342;9.662;2023-03-01T08:42:40;14.30;;;8.83;;
11646;SDS011;5880;52.342;9.662;2023-03-01T08:45:08;11.40;;;8.37;;
11646;SDS011;5880;52.342;9.662;2023-03-01T08:47:35;10.23;;;7.43;;
11646;SDS011;5880;52.342;9.662;2023-03-01T08:50:01;9.90;;;7.00;;
11646;SDS011;5880;52.342;9.662;2023-03-01T08:52:27;9.83;;;6.70;;
11646;SDS011;5880;52.342;9.662;2023-03-01T08:54:54;9.00;;;6.63;;
11646;SDS011;5880;52.342;9.662;2023-03-01T08:57:21;8.40;;;6.07;;
11646;SDS011;5880;52.342;9.662;2023-03-01T08:59:47;8.43;;;6.50;;
11646;SDS011;5880;52.342;9.662;2023-03-01T09:02:14;8.97;;;5.83;;
11646;SDS011;5880;52.342;9.662;2023-03-01T09:04:43;7.87;;;5.17;;
11646;SDS011;5880;52.342;9.662;2023-03-01T09:07:09;8.80;;;5.57;;
11646;SDS011;5880;52.342;9.662;2023-03-01T09:09:36;7.60;;;5.30;;
11646;SDS011;5880;52.342;9.662;2023-03-01T09:12:02;7.40;;;5.17;;
11646;SDS011;5880;52.342;9.662;2023-03-01T09:14:28;8.53;;;5.13;;
11646;SDS011;5880;52.342;9.662;2023-03-01T09:16:54;7.20;;;4.80;;
11646;SDS011;5880;52.342;9.662;2023-03-01T09:19:20;7.60;;;5.30;;
11646;SDS011;5880;52.342;9.662;2023-03-01T09:21:46;8.33;;;5.27;;
11646;SDS011;5880;52.342;9.662;2023-03-01T09:24:17;10.57;;;5.37;;
11646;SDS011;5880;52.342;9.662;2023-03-01T09:26:48;7.97;;;5.77;;
11646;SDS011;5880;52.342;9.662;2023-03-01T09:29:17;6.23;;;5.23;;
11646;SDS011;5880;52.342;9.662;2023-03-01T09:31:43;7.10;;;5.53;;
11646;SDS011;5880;52.342;9.662;2023-03-01T09:34:08;8.87;;;5.17;;
11646;SDS011;5880;52.342;9.662;2023-03-01T09:36:34;7.07;;;4.90;;
11646;SDS011;5880;52.342;9.662;2023-03-01T09:39:00;6.97;;;5.33;;
11646;SDS011;5880;52.342;9.662;2023-03-01T09:44:29;8.43;;;5.67;;
11646;SDS011;5880;52.342;9.662;2023-03-01T09:47:16;6.83;;;5.30;;
11646;SDS011;5880;52.342;9.662;2023-03-01T09:49:52;6.60;;;5.67;;
11646;SDS011;5880;52.342;9.662;2023-03-01T10:01:58;9.83;;;5.40;;
11646;SDS011;5880;52.342;9.662;2023-03-01T10:04:45;5.97;;;4.50;;
11646;SDS011;5880;52.342;9.662;2023-03-01T10:09:57;6.90;;;5.43;;
11646;SDS011;5880;52.342;9.662;2023-03-01T10:12:26;6.93;;;4.80;;
11646;SDS011;5880;52.342;9.662;2023-03-01T10:15:05;5.63;;;4.40;;
11646;SDS011;5880;52.342;9.662;2023-03-01T10:17:52;6.30;;;5.30;;
11646;SDS011;5880;52.342;9.662;2023-03-01T10:23:24;5.50;;;4.20;;
11646;SDS011;5880;52.342;9.662;2023-03-01T10:34:15;6.17;;;4.77;;
11646;SDS011;5880;52.342;9.662;2023-03-01T10:36:53;5.20;;;4.27;;
11646;SDS011;5880;52.342;9.662;2023-03-01T10:39:34;6.10;;;4.40;;
11646;SDS011;5880;52.342;9.662;2023-03-01T10:42:04;6.27;;;4.77;;
11646;SDS011;5880;52.342;9.662;2023-03-01T10:45:14;5.30;;;4.27;;
11646;SDS011;5880;52.342;9.662;2023-03-01T10:47:41;5.67;;;4.80;;
11646;SDS011;5880;52.342;9.662;2023-03-01T10:50:18;7.20;;;4.60;;
11646;SDS011;5880;52.342;9.662;2023-03-01T10:53:03;7.63;;;5.33;;
11646;SDS011;5880;52.342;9.662;2023-03-01T10:55:36;7.33;;;5.10;;
11646;SDS011;5880;52.342;9.662;2023-03-01T10:58:20;7.27;;;5.20;;
11646;SDS011;5880;52.342;9.662;2023-03-01T11:03:42;7.67;;;4.30;;
11646;SDS011;5880;52.342;9.662;2023-03-01T11:13:50;5.97;;;4.50;;
11646;SDS011;5880;52.342;9.662;2023-03-01T11:16:40;5.50;;;4.27;;
11646;SDS011;5880;52.342;9.662;2023-03-01T11:21:55;5.53;;;4.00;;
11646;SDS011;5880;52.342;9.662;2023-03-01T11:27:02;8.07;;;4.00;;
11646;SDS011;5880;52.342;9.662;2023-03-01T11:29:38;7.47;;;3.97;;
11646;SDS011;5880;52.342;9.662;2023-03-01T11:32:12;5.97;;;4.30;;
11646;SDS011;5880;52.342;9.662;2023-03-01T11:34:42;6.33;;;4.00;;
11646;SDS011;5880;52.342;9.662;2023-03-01T11:37:28;6.30;;;3.70;;
11646;SDS011;5880;52.342;9.662;2023-03-01T11:42:48;6.03;;;4.20;;
11646;SDS011;5880;52.342;9.662;2023-03-01T11:45:58;6.17;;;3.80;;
11646;SDS011;5880;52.342;9.662;2023-03-01T11:48:38;6.43;;;3.13;;
11646;SDS011;5880;52.342;9.662;2023-03-01T11:54:15;4.53;;;3.43;;
11646;SDS011;5880;52.342;9.662;2023-03-01T11:57:12;4.97;;;3.60;;
11646;SDS011;5880;52.342;9.662;2023-03-01T12:00:07;4.73;;;3.10;;
11646;SDS011;5880;52.342;9.662;2023-03-01T12:08:35;6.23;;;3.63;;
11646;SDS011;5880;52.342;9.662;2023-03-01T12:19:36;4.63;;;3.13;;
11646;SDS011;5880;52.342;9.662;2023-03-01T12:22:36;4.97;;;3.30;;
11646;SDS011;5880;52.342;9.662;2023-03-01T12:25:45;5.90;;;3.70;;
11646;SDS011;5880;52.342;9.662;2023-03-01T12:37:10;5.40;;;3.70;;
11646;SDS011;5880;52.342;9.662;2023-03-01T12:48:41;4.30;;;3.23;;
11646;SDS011;5880;52.342;9.662;2023-03-01T12:51:23;4.50;;;3.47;;
11646;SDS011;5880;52.342;9.662;2023-03-01T12:53:53;7.57;;;3.60;;
11646;SDS011;5880;52.342;9.662;2023-03-01T12:56:29;4.80;;;3.43;;
11646;SDS011;5880;52.342;9.662;2023-03-01T12:59:20;5.40;;;3.50;;
11646;SDS011;5880;52.342;9.662;2023-03-01T13:07:58;5.83;;;3.73;;
11646;SDS011;5880;52.342;9.662;2023-03-01T13:10:54;8.03;;;4.90;;
11646;SDS011;5880;52.342;9.662;2023-03-01T13:13:27;9.37;;;5.03;;
11646;SDS011;5880;52.342;9.662;2023-03-01T13:15:54;16.87;;;6.70;;
11646;SDS011;5880;52.342;9.662;2023-03-01T13:20:51;8.90;;;4.30;;
11646;SDS011;5880;52.342;9.662;2023-03-01T13:31:09;19.37;;;8.00;;
11646;SDS011;5880;52.342;9.662;2023-03-01T13:33:55;10.73;;;5.00;;
11646;SDS011;5880;52.342;9.662;2023-03-01T13:49:47;4.03;;;3.43;;
11646;SDS011;5880;52.342;9.662;2023-03-01T13:52:24;5.00;;;3.67;;
11646;SDS011;5880;52.342;9.662;2023-03-01T13:55:34;5.47;;;3.60;;
11646;SDS011;5880;52.342;9.662;2023-03-01T13:58:04;6.13;;;3.57;;
11646;SDS011;5880;52.342;9.662;2023-03-01T14:00:40;4.37;;;3.60;;
11646;SDS011;5880;52.342;9.662;2023-03-01T14:03:19;5.63;;;3.90;;
11646;SDS011;5880;52.342;9.662;2023-03-01T14:08:33;12.87;;;6.13;;
11646;SDS011;5880;52.342;9.662;2023-03-01T14:11:28;14.87;;;6.50;;
11646;SDS011;5880;52.342;9.662;2023-03-01T14:17:11;10.93;;;6.00;;
11646;SDS011;5880;52.342;9.662;2023-03-01T14:20:00;15.27;;;6.50;;
11646;SDS011;5880;52.342;9.662;2023-03-01T14:22:37;8.80;;;5.13;;
11646;SDS011;5880;52.342;9.662;2023-03-01T14:28:18;8.57;;;4.60;;
11646;SDS011;5880;52.342;9.662;2023-03-01T14:30:56;6.60;;;4.40;;
11646;SDS011;5880;52.342;9.662;2023-03-01T14:33:26;6.80;;;4.40;;
11646;SDS011;5880;52.342;9.662;2023-03-01T14:38:37;5.83;;;4.20;;
11646;SDS011;5880;52.342;9.662;2023-03-01T14:41:11;4.57;;;3.60;;
11646;SDS011;5880;52.342;9.662;2023-03-01T14:43:46;6.73;;;3.97;;
11646;SDS011;5880;52.342;9.662;2023-03-01T14:46:21;4.63;;;3.27;;
11646;SDS011;5880;52.342;9.662;2023-03-01T14:49:01;4.03;;;3.10;;
11646;SDS011;5880;52.342;9.662;2023-03-01T14:51:39;6.57;;;3.87;;
11646;SDS011;5880;52.342;9.662;2023-03-01T14:54:18;6.50;;;3.67;;
11646;SDS011;5880;52.342;9.662;2023-03-01T14:57:00;3.77;;;3.07;;
11646;SDS011;5880;52.342;9.662;2023-03-01T14:59:26;5.67;;;3.00;;
11646;SDS011;5880;52.342;9.662;2023-03-01T15:01:55;4.03;;;3.07;;
11646;SDS011;5880;52.342;9.662;2023-03-01T15:04:23;5.50;;;3.53;;
11646;SDS011;5880;52.342;9.662;2023-03-01T15:06:51;7.30;;;4.20;;
11646;SDS011;5880;52.342;9.662;2023-03-01T15:09:19;10.67;;;5.17;;
11646;SDS011;5880;52.342;9.662;2023-03-01T15:11:46;9.93;;;4.93;;
11646;SDS011;5880;52.342;9.662;2023-03-01T15:20:04;14.90;;;6.33;;
11646;SDS011;5880;52.342;9.662;2023-03-01T15:22:43;8.03;;;3.90;;
11646;SDS011;5880;52.342;9.662;2023-03-01T15:25:16;6.67;;;3.40;;
11646;SDS011;5880;52.342;9.662;2023-03-01T15:27:46;5.10;;;2.90;;
11646;SDS011;5880;52.342;9.662;2023-03-01T15:30:22;4.40;;;2.97;;
11646;SDS011;5880;52.342;9.662;2023-03-01T15:33:38;3.63;;;2.40;;
11646;SDS011;5880;52.342;9.662;2023-03-01T15:35:50;4.43;;;2.77;;
11646;SDS011;5880;52.342;9.662;2023-03-01T15:38:34;3.67;;;2.70;;
11646;SDS011;5880;52.342;9.662;2023-03-01T15:41:25;3.83;;;2.70;;
11646;SDS011;5880;52.342;9.662;2023-03-01T15:44:16;3.27;;;2.40;;
11646;SDS011;5880;52.342;9.662;2023-03-01T15:46:53;6.50;;;3.00;;
11646;SDS011;5880;52.342;9.662;2023-03-01T15:52:13;4.13;;;2.40;;
11646;SDS011;5880;52.342;9.662;2023-03-01T15:55:02;3.93;;;2.40;;
11646;SDS011;5880;52.342;9.662;2023-03-01T15:57:31;4.00;;;2.60;;
11646;SDS011;5880;52.342;9.662;2023-03-01T15:59:57;3.23;;;2.60;;
11646;SDS011;5880;52.342;9.662;2023-03-01T16:02:23;3.10;;;2.40;;
11646;SDS011;5880;52.342;9.662;2023-03-01T16:04:50;2.97;;;2.40;;
11646;SDS011;5880;52.342;9.662;2023-03-01T16:07:16;3.50;;;2.63;;
11646;SDS011;5880;52.342;9.662;2023-03-01T16:09:42;3.97;;;2.97;;
11646;SDS011;5880;52.342;9.662;2023-03-01T16:12:12;4.17;;;2.63;;
11646;SDS011;5880;52.342;9.662;2023-03-01T16:14:41;3.40;;;2.50;;
11646;SDS011;5880;52.342;9.662;2023-03-01T16:17:07;2.97;;;2.37;;
11646;SDS011;5880;52.342;9.662;2023-03-01T16:19:34;4.77;;;2.70;;
11646;SDS011;5880;52.342;9.662;2023-03-01T16:22:02;3.97;;;2.50;;
11646;SDS011;5880;52.342;9.662;2023-03-01T16:24:28;3.63;;;2.70;;
11646;SDS011;5880;52.342;9.662;2023-03-01T16:26:54;3.43;;;2.80;;
11646;SDS011;5880;52.342;9.662;2023-03-01T16:29:20;4.10;;;3.00;;
11646;SDS011;5880;52.342;9.662;2023-03-01T16:31:46;4.23;;;2.50;;
11646;SDS011;5880;52.342;9.662;2023-03-01T16:34:12;4.50;;;2.47;;
11646;SDS011;5880;52.342;9.662;2023-03-01T16:36:38;3.20;;;2.20;;
11646;SDS011;5880;52.342;9.662;2023-03-01T16:39:04;3.03;;;2.30;;
11646;SDS011;5880;52.342;9.662;2023-03-01T16:41:29;3.67;;;2.63;;
11646;SDS011;5880;52.342;9.662;2023-03-01T16:43:55;4.70;;;2.60;;
11646;SDS011;5880;52.342;9.662;2023-03-01T16:46:22;4.63;;;2.40;;
11646;SDS011;5880;52.342;9.662;2023-03-01T16:48:51;5.67;;;2.80;;
11646;SDS011;5880;52.342;9.662;2023-03-01T16:51:17;3.03;;;2.37;;
11646;SDS011;5880;52.342;9.662;2023-03-01T16:53:43;3.83;;;2.77;;
11646;SDS011;5880;52.342;9.662;2023-03-01T16:56:10;3.50;;;2.57;;
11646;SDS011;5880;52.342;9.662;2023-03-01T16:58:38;4.07;;;2.70;;
11646;SDS011;5880;52.342;9.662;2023-03-01T17:01:05;4.80;;;2.80;;
11646;SDS011;5880;52.342;9.662;2023-03-01T17:03:40;6.27;;;2.63;;
11646;SDS011;5880;52.342;9.662;2023-03-01T17:06:08;3.97;;;2.57;;
11646;SDS011;5880;52.342;9.662;2023-03-01T17:08:38;3.90;;;2.43;;
11646;SDS011;5880;52.342;9.662;2023-03-01T17:11:09;3.60;;;2.20;;
11646;SDS011;5880;52.342;9.662;2023-03-01T17:13:43;2.63;;;2.20;;
11646;SDS011;5880;52.342;9.662;2023-03-01T17:16:12;4.57;;;2.40;;
11646;SDS011;5880;52.342;9.662;2023-03-01T17:18:41;3.43;;;2.60;;
11646;SDS011;5880;52.342;9.662;2023-03-01T17:21:07;3.40;;;2.20;;
11646;SDS011;5880;52.342;9.662;2023-03-01T17:23:34;3.57;;;2.20;;
11646;SDS011;5880;52.342;9.662;2023-03-01T17:26:02;3.20;;;2.37;;
11646;SDS011;5880;52.342;9.662;2023-03-01T17:28:29;3.33;;;2.60;;
11646;SDS011;5880;52.342;9.662;2023-03-01T17:30:56;5.07;;;2.83;;
11646;SDS011;5880;52.342;9.662;2023-03-01T17:33:25;3.90;;;2.40;;
11646;SDS011;5880;52.342;9.662;2023-03-01T17:35:50;3.87;;;2.37;;
11646;SDS011;5880;52.342;9.662;2023-03-01T17:38:16;3.97;;;2.53;;
11646;SDS011;5880;52.342;9.662;2023-03-01T17:40:43;3.27;;;2.50;;